createdAt,value
2019-03-08T00:01:58.623Z,6.72
2019-03-08T00:04:30.006Z,6.74
2019-03-08T00:07:01.346Z,6.74
2019-03-08T00:09:33.581Z,6.73
2019-03-08T00:12:04.906Z,6.72
2019-03-08T00:14:36.224Z,6.72
2019-03-08T00:17:09.219Z,6.72
2019-03-08T00:19:40.625Z,6.71
2019-03-08T00:22:12.085Z,6.70
2019-03-08T00:24:43.523Z,6.68
2019-03-08T00:27:15.068Z,6.67
2019-03-08T00:29:46.465Z,6.68
2019-03-08T00:32:17.791Z,6.69
2019-03-08T00:34:49.256Z,6.70
2019-03-08T00:37:20.895Z,6.71
2019-03-08T00:39:52.448Z,6.73
2019-03-08T00:42:23.799Z,6.77
2019-03-08T00:44:55.184Z,6.77
2019-03-08T00:47:26.692Z,6.79
2019-03-08T00:49:58.235Z,6.81
2019-03-08T00:52:29.590Z,6.83
2019-03-08T00:55:00.892Z,6.83
2019-03-08T00:57:32.338Z,6.84
2019-03-08T01:00:05.246Z,6.84
2019-03-08T01:02:37.163Z,6.85
2019-03-08T01:05:09.463Z,6.85
2019-03-08T01:07:41.036Z,6.85
2019-03-08T01:10:14.197Z,6.85
2019-03-08T01:12:45.713Z,6.86
2019-03-08T01:15:18.008Z,6.93
2019-03-08T01:17:49.399Z,6.99
2019-03-08T01:20:20.916Z,7.03
2019-03-08T01:22:52.196Z,7.02
2019-03-08T01:25:23.717Z,7.02
2019-03-08T01:28:02.992Z,7.04
2019-03-08T01:30:34.952Z,7.11
2019-03-08T01:33:06.870Z,7.12
2019-03-08T01:35:38.241Z,7.13
2019-03-08T01:38:09.565Z,7.12
2019-03-08T01:40:40.927Z,7.08
2019-03-08T01:43:12.884Z,7.07
2019-03-08T01:45:44.151Z,6.01
2019-03-08T01:48:15.578Z,7.00
2019-03-08T01:50:47.019Z,6.96
2019-03-08T01:53:18.357Z,6.92
2019-03-08T01:55:49.850Z,6.87
2019-03-08T01:58:21.432Z,6.83
2019-03-08T02:00:52.749Z,6.80
2019-03-08T02:03:24.148Z,6.77
2019-03-08T02:05:55.652Z,6.75
2019-03-08T02:08:26.991Z,6.74
2019-03-08T02:11:00.278Z,6.74
2019-03-08T02:13:31.603Z,6.72
2019-03-08T02:16:02.987Z,6.74
2019-03-08T02:18:34.388Z,6.77
2019-03-08T02:21:07.020Z,6.79
2019-03-08T02:23:38.850Z,6.81
2019-03-08T02:26:10.309Z,6.86
2019-03-08T02:28:41.681Z,6.90
2019-03-08T02:31:13.181Z,6.96
2019-03-08T02:33:46.146Z,6.97
2019-03-08T02:36:17.535Z,6.94
2019-03-08T02:38:48.858Z,6.92
2019-03-08T02:41:20.211Z,6.93
2019-03-08T02:43:51.542Z,6.93
2019-03-08T02:46:22.814Z,6.94
2019-03-08T02:48:54.237Z,6.94
2019-03-08T02:51:25.748Z,6.92
2019-03-08T02:53:57.167Z,6.90
2019-03-08T02:56:28.447Z,6.88
2019-03-08T02:59:00.060Z,6.85
2019-03-08T03:01:31.577Z,6.84
2019-03-08T03:04:03.083Z,6.81
2019-03-08T03:06:34.473Z,6.77
2019-03-08T03:09:06.930Z,6.76
2019-03-08T03:11:40.437Z,6.76
2019-03-08T03:14:11.833Z,6.79
2019-03-08T03:16:44.970Z,6.87
2019-03-08T03:19:16.596Z,6.98
2019-03-08T03:21:48.283Z,7.11
2019-03-08T03:24:20.028Z,7.21
2019-03-08T03:26:51.471Z,7.29
2019-03-08T03:29:22.786Z,7.35
2019-03-08T03:31:54.133Z,7.42
2019-03-08T03:34:25.813Z,7.48
2019-03-08T03:36:57.298Z,7.56
2019-03-08T03:39:28.676Z,7.68
2019-03-08T03:42:02.070Z,7.78
2019-03-08T03:44:40.730Z,7.91
2019-03-08T03:47:16.681Z,8.11
2019-03-08T03:49:48.272Z,8.25
2019-03-08T03:52:19.708Z,8.28
2019-03-08T03:54:51.130Z,8.32
2019-03-08T03:57:22.498Z,8.32
2019-03-08T03:59:53.936Z,8.32
2019-03-08T04:02:25.755Z,8.24
2019-03-08T04:04:57.102Z,8.21
2019-03-08T04:07:28.381Z,8.16
2019-03-08T04:09:59.759Z,8.14
2019-03-08T04:12:31.256Z,8.14
2019-03-08T04:15:04.069Z,8.17
2019-03-08T04:17:35.910Z,8.21
2019-03-08T04:20:09.051Z,8.27
2019-03-08T04:22:40.559Z,8.32
2019-03-08T04:25:13.248Z,8.36
2019-03-08T04:27:44.727Z,8.44
2019-03-08T04:30:21.026Z,8.48
2019-03-08T04:32:54.812Z,8.53
2019-03-08T04:35:34.395Z,8.69
2019-03-08T04:38:12.005Z,8.75
2019-03-08T04:40:45.483Z,8.86
2019-03-08T04:43:16.960Z,8.94
2019-03-08T04:45:48.516Z,9.08
2019-03-08T04:48:28.809Z,9.05
2019-03-08T04:51:04.785Z,9.14
2019-03-08T04:53:36.331Z,9.10
2019-03-08T04:56:13.229Z,9.13
2019-03-08T04:58:48.060Z,9.07
2019-03-08T05:01:27.498Z,9.09
2019-03-08T05:04:10.937Z,9.14
2019-03-08T05:07:03.359Z,9.22
2019-03-08T05:09:34.940Z,9.27
2019-03-08T05:12:06.650Z,9.24
2019-03-08T05:14:45.110Z,9.20
2019-03-08T05:17:16.729Z,9.22
2019-03-08T05:19:51.358Z,9.27
2019-03-08T05:22:23.685Z,9.16
2019-03-08T05:25:20.411Z,9.23
2019-03-08T05:27:59.079Z,9.23
2019-03-08T05:30:36.066Z,9.38
2019-03-08T05:33:07.922Z,9.39
2019-03-08T05:35:41.533Z,9.52
2019-03-08T05:38:13.157Z,9.48
2019-03-08T05:40:48.759Z,9.39
2019-03-08T05:43:38.102Z,9.36
2019-03-08T05:46:13.893Z,9.32
2019-03-08T05:48:51.687Z,9.60
2019-03-08T05:51:26.130Z,9.64
2019-03-08T05:53:58.989Z,9.68
2019-03-08T05:56:39.271Z,9.66
2019-03-08T05:59:10.870Z,9.80
2019-03-08T06:01:48.760Z,9.83
2019-03-08T06:04:21.295Z,9.83
2019-03-08T06:07:03.381Z,9.87
2019-03-08T06:09:40.755Z,9.96
2019-03-08T06:12:19.319Z,10.00
2019-03-08T06:14:59.886Z,10.00
2019-03-08T06:17:40.080Z,10.01
2019-03-08T06:20:11.535Z,10.02
2019-03-08T06:22:43.076Z,9.97
2019-03-08T06:25:14.517Z,9.54
2019-03-08T06:27:46.632Z,9.94
2019-03-08T06:30:22.813Z,10.04
2019-03-08T06:32:54.543Z,10.09
2019-03-08T06:35:25.935Z,10.17
2019-03-08T06:37:57.337Z,10.15
2019-03-08T06:40:29.762Z,10.13
2019-03-08T06:43:02.243Z,10.15
2019-03-08T06:45:34.119Z,10.21
2019-03-08T06:48:10.229Z,9.18
2019-03-08T06:50:41.771Z,10.25
2019-03-08T06:53:15.187Z,10.26
2019-03-08T06:55:46.714Z,10.25
2019-03-08T06:58:39.294Z,10.37
2019-03-08T07:01:13.900Z,10.41
2019-03-08T07:03:45.531Z,10.48
2019-03-08T07:06:23.243Z,10.50
2019-03-08T07:08:55.508Z,10.56
2019-03-08T07:11:30.816Z,10.58
2019-03-08T07:14:04.300Z,10.66
2019-03-08T07:16:42.074Z,10.74
2019-03-08T07:19:13.523Z,10.82
2019-03-08T07:21:59.678Z,10.86
2019-03-08T07:24:50.622Z,11.02
2019-03-08T07:27:45.674Z,11.13
2019-03-08T07:30:36.244Z,11.21
2019-03-08T07:33:16.423Z,11.45
2019-03-08T07:36:01.148Z,11.37
2019-03-08T07:39:08.103Z,11.58
2019-03-08T07:41:59.277Z,11.58
2019-03-08T07:44:55.983Z,11.72
2019-03-08T07:47:49.700Z,11.78
2019-03-08T07:50:40.610Z,11.83
2019-03-08T07:53:33.675Z,11.84
2019-03-08T07:56:15.803Z,12.06
2019-03-08T07:59:19.856Z,12.29
2019-03-08T08:02:25.237Z,12.35
2019-03-08T08:05:28.887Z,12.58
2019-03-08T08:08:13.068Z,12.81
2019-03-08T08:11:05.021Z,12.89
2019-03-08T08:14:06.989Z,12.94
2019-03-08T08:17:00.419Z,12.93
2019-03-08T08:19:56.913Z,12.92
2019-03-08T08:22:57.122Z,13.10
2019-03-08T08:25:47.768Z,13.13
2019-03-08T08:28:27.668Z,13.34
2019-03-08T08:31:21.770Z,13.51
2019-03-08T08:34:12.212Z,13.69
2019-03-08T08:37:17.659Z,13.95
2019-03-08T08:40:11.273Z,13.89
2019-03-08T08:43:01.385Z,13.95
2019-03-08T08:45:54.877Z,14.04
2019-03-08T08:48:53.442Z,14.03
2019-03-08T08:52:02.818Z,13.86
2019-03-08T08:54:52.252Z,13.71
2019-03-08T08:57:45.680Z,13.82
2019-03-08T09:00:27.588Z,13.77
2019-03-08T09:03:30.807Z,13.86
2019-03-08T09:06:27.418Z,13.95
2019-03-08T09:09:24.213Z,14.08
2019-03-08T09:12:07.333Z,14.14
2019-03-08T09:14:53.590Z,14.22
2019-03-08T09:17:42.489Z,14.20
2019-03-08T09:20:35.863Z,14.24
2019-03-08T09:23:24.890Z,14.15
2019-03-08T09:26:08.237Z,13.99
2019-03-08T09:28:54.524Z,13.98
2019-03-08T09:31:44.935Z,14.13
2019-03-08T09:34:31.820Z,14.05
2019-03-08T09:37:12.799Z,13.99
2019-03-08T09:40:12.372Z,13.85
2019-03-08T09:42:59.647Z,13.82
2019-03-08T09:45:48.743Z,13.79
2019-03-08T09:48:39.358Z,13.76
2019-03-08T09:51:24.383Z,13.76
2019-03-08T09:54:02.722Z,13.78
2019-03-08T09:56:53.100Z,13.74
2019-03-08T09:59:33.480Z,13.65
2019-03-08T10:02:17.055Z,13.68
2019-03-08T10:05:06.971Z,13.90
2019-03-08T10:08:00.532Z,14.15
2019-03-08T10:10:59.511Z,14.46
2019-03-08T10:13:56.766Z,14.70
2019-03-08T10:16:50.353Z,15.16
2019-03-08T10:19:40.891Z,15.49
2019-03-08T10:22:27.486Z,15.50
2019-03-08T10:25:18.346Z,15.82
2019-03-08T10:27:56.759Z,15.44
2019-03-08T10:30:37.011Z,15.09
2019-03-08T10:33:17.959Z,14.71
2019-03-08T10:36:11.648Z,14.58
2019-03-08T10:38:54.380Z,14.44
2019-03-08T10:41:44.603Z,14.27
2019-03-08T10:44:40.693Z,14.43
2019-03-08T10:47:39.568Z,14.61
2019-03-08T10:50:24.979Z,14.76
2019-03-08T10:53:05.432Z,14.80
2019-03-08T10:55:57.589Z,14.81
2019-03-08T10:58:48.724Z,14.94
2019-03-08T11:01:40.495Z,15.15
2019-03-08T11:04:36.899Z,15.45
2019-03-08T11:07:35.270Z,15.72
2019-03-08T11:10:26.298Z,15.72
2019-03-08T11:13:27.554Z,15.60
2019-03-08T11:16:24.975Z,15.56
2019-03-08T11:19:17.087Z,15.23
2019-03-08T11:22:17.130Z,15.08
2019-03-08T11:25:10.586Z,15.13
2019-03-08T11:28:20.984Z,15.14
2019-03-08T11:31:05.322Z,15.13
2019-03-08T11:34:07.771Z,15.11
2019-03-08T11:36:44.257Z,15.23
2019-03-08T11:39:45.474Z,15.47
2019-03-08T11:42:37.168Z,15.53
2019-03-08T11:45:31.748Z,15.55
2019-03-08T11:48:26.890Z,15.71
2019-03-08T11:51:38.509Z,15.98
2019-03-08T11:54:46.014Z,15.99
2019-03-08T11:57:35.179Z,15.93
2019-03-08T12:00:24.355Z,16.03
2019-03-08T12:03:13.490Z,15.85
2019-03-08T12:05:58.014Z,15.47
2019-03-08T12:08:48.328Z,15.26
2019-03-08T12:11:40.466Z,15.54
2019-03-08T12:14:38.334Z,15.61
2019-03-08T12:17:27.525Z,15.17
2019-03-08T12:20:23.791Z,15.01
2019-03-08T12:23:08.331Z,15.19
2019-03-08T12:25:46.314Z,15.53
2019-03-08T12:28:35.683Z,15.38
2019-03-08T12:31:27.095Z,15.31
2019-03-08T12:34:17.171Z,15.16
2019-03-08T12:37:12.477Z,15.02
2019-03-08T12:40:03.180Z,15.00
2019-03-08T12:42:50.624Z,15.16
2019-03-08T12:45:31.828Z,14.85
2019-03-08T12:48:23.893Z,14.85
2019-03-08T12:51:10.526Z,14.75
2019-03-08T12:54:10.188Z,14.48
2019-03-08T12:57:08.928Z,14.34
2019-03-08T13:00:08.807Z,14.29
2019-03-08T13:02:49.657Z,14.28
2019-03-08T13:05:35.883Z,14.23
2019-03-08T13:08:24.849Z,14.13
2019-03-08T13:10:56.277Z,14.16
2019-03-08T13:13:27.697Z,14.26
2019-03-08T13:15:59.113Z,14.29
2019-03-08T13:18:30.859Z,14.29
2019-03-08T13:21:02.462Z,14.32
2019-03-08T13:23:34.098Z,14.35
2019-03-08T13:26:05.467Z,14.27
2019-03-08T13:28:36.944Z,14.18
2019-03-08T13:31:08.782Z,14.11
2019-03-08T13:33:40.191Z,14.04
2019-03-08T13:36:11.604Z,14.11
2019-03-08T13:38:43.091Z,14.09
2019-03-08T13:41:14.491Z,14.02
2019-03-08T13:43:46.036Z,14.07
2019-03-08T13:46:17.533Z,14.19
2019-03-08T13:48:49.142Z,14.20
2019-03-08T13:51:20.730Z,14.10
2019-03-08T13:53:52.202Z,14.12
2019-03-08T13:56:23.486Z,14.01
2019-03-08T13:58:54.842Z,14.00
2019-03-08T14:01:26.305Z,14.11
2019-03-08T14:03:57.666Z,14.01
2019-03-08T14:06:29.323Z,14.01
2019-03-08T14:09:00.615Z,13.92
2019-03-08T14:11:31.910Z,14.05
2019-03-08T14:14:03.288Z,14.17
2019-03-08T14:16:34.642Z,14.10
2019-03-08T14:19:06.463Z,14.17
2019-03-08T14:21:37.965Z,14.23
2019-03-08T14:24:09.724Z,14.20
2019-03-08T14:26:41.235Z,14.23
2019-03-08T14:29:12.835Z,14.13
2019-03-08T14:32:09.092Z,14.13
2019-03-08T14:34:42.103Z,14.18
2019-03-08T14:37:16.098Z,14.08
2019-03-08T14:39:46.448Z,14.06
2019-03-08T14:42:31.591Z,13.82
2019-03-08T14:45:10.595Z,13.69
2019-03-08T14:48:05.842Z,13.52
2019-03-08T14:50:36.971Z,13.46
2019-03-08T14:53:08.440Z,13.21
2019-03-08T14:55:39.770Z,13.12
2019-03-08T14:58:12.468Z,13.13
2019-03-08T15:00:43.967Z,13.09
2019-03-08T15:03:15.481Z,13.12
2019-03-08T15:05:46.947Z,13.15
2019-03-08T15:08:19.284Z,13.10
2019-03-08T15:10:51.458Z,13.02
2019-03-08T15:13:24.075Z,12.87
2019-03-08T15:15:57.821Z,12.79
2019-03-08T15:18:29.765Z,12.78
2019-03-08T15:21:02.201Z,12.76
2019-03-08T15:23:33.625Z,12.63
2019-03-08T15:26:06.022Z,12.64
2019-03-08T15:28:37.452Z,12.60
2019-03-08T15:31:09.110Z,12.58
2019-03-08T15:33:40.624Z,12.54
2019-03-08T15:36:11.975Z,12.48
2019-03-08T15:38:44.020Z,12.50
2019-03-08T15:41:15.852Z,12.51
2019-03-08T15:43:51.353Z,12.46
2019-03-08T15:46:22.385Z,12.37
2019-03-08T15:48:54.826Z,12.42
2019-03-08T15:51:26.999Z,12.31
2019-03-08T15:53:58.441Z,12.22
2019-03-08T15:56:29.754Z,12.31
2019-03-08T15:59:03.284Z,12.26
2019-03-08T16:01:34.997Z,12.26
2019-03-08T16:04:08.247Z,12.23
2019-03-08T16:06:43.219Z,12.22
2019-03-08T16:09:12.698Z,12.23
2019-03-08T16:11:46.020Z,12.20
2019-03-08T16:14:17.167Z,12.26
2019-03-08T16:16:48.806Z,12.12
2019-03-08T16:19:20.815Z,12.09
2019-03-08T16:21:53.153Z,12.04
2019-03-08T16:24:27.182Z,12.07
2019-03-08T16:26:58.805Z,11.97
2019-03-08T16:29:30.834Z,11.85
2019-03-08T16:32:14.087Z,11.77
2019-03-08T16:34:45.246Z,11.74
2019-03-08T16:37:38.031Z,11.74
2019-03-08T16:40:43.239Z,11.69
2019-03-08T16:43:42.116Z,11.45
2019-03-08T16:46:34.274Z,11.45
2019-03-08T16:49:20.949Z,11.44
2019-03-08T16:52:14.050Z,11.29
2019-03-08T16:55:01.680Z,11.29
2019-03-08T16:57:54.998Z,11.03
2019-03-08T17:00:40.542Z,11.05
2019-03-08T17:03:26.423Z,10.89
2019-03-08T17:06:05.310Z,10.70
2019-03-08T17:09:01.796Z,10.44
2019-03-08T17:11:48.807Z,10.44
2019-03-08T17:14:33.252Z,10.15
2019-03-08T17:17:21.697Z,9.94
2019-03-08T17:20:15.041Z,9.87
2019-03-08T17:23:08.614Z,9.75
2019-03-08T17:25:58.952Z,9.62
2019-03-08T17:28:45.298Z,9.61
2019-03-08T17:31:23.738Z,9.57
2019-03-08T17:34:02.681Z,9.55
2019-03-08T17:36:43.039Z,9.50
2019-03-08T17:39:19.109Z,9.43
2019-03-08T17:42:08.361Z,9.37
2019-03-08T17:44:57.555Z,9.36
2019-03-08T17:47:51.010Z,9.28
2019-03-08T17:50:44.552Z,9.24
2019-03-08T17:53:35.085Z,9.22
2019-03-08T17:56:19.830Z,9.14
2019-03-08T17:58:57.821Z,9.11
2019-03-08T18:01:44.381Z,9.04
2019-03-08T18:04:37.838Z,8.98
2019-03-08T18:07:21.039Z,8.90
2019-03-08T18:10:10.106Z,8.88
2019-03-08T18:13:15.863Z,8.88
2019-03-08T18:16:07.371Z,8.90
2019-03-08T18:18:57.648Z,8.86
2019-03-08T18:21:56.616Z,8.79
2019-03-08T18:24:48.864Z,8.85
2019-03-08T18:27:42.208Z,8.67
2019-03-08T18:30:26.405Z,8.54
2019-03-08T18:33:16.682Z,8.50
2019-03-08T18:36:12.715Z,8.41
2019-03-08T18:39:12.628Z,8.32
2019-03-08T18:42:18.230Z,8.21
2019-03-08T18:45:07.226Z,8.13
2019-03-08T18:48:06.700Z,8.06
2019-03-08T18:51:01.360Z,7.97
2019-03-08T18:53:54.984Z,7.85
2019-03-08T18:56:56.819Z,7.76
2019-03-08T18:59:37.898Z,7.66
2019-03-08T19:02:27.075Z,7.58
2019-03-08T19:05:29.353Z,7.49
2019-03-08T19:08:28.923Z,7.43
2019-03-08T19:11:10.210Z,7.38
2019-03-08T19:13:49.582Z,7.31
2019-03-08T19:16:35.936Z,7.27
2019-03-08T19:19:26.233Z,7.21
2019-03-08T19:22:16.009Z,7.17
2019-03-08T19:24:52.712Z,7.10
2019-03-08T19:27:45.917Z,7.03
2019-03-08T19:30:39.601Z,6.97
2019-03-08T19:33:27.157Z,6.87
2019-03-08T19:36:10.587Z,6.83
2019-03-08T19:39:01.176Z,6.80
2019-03-08T19:41:48.087Z,6.78
2019-03-08T19:44:26.562Z,6.84
2019-03-08T19:47:09.859Z,6.88
2019-03-08T19:49:58.817Z,6.91
2019-03-08T19:53:09.251Z,6.90
2019-03-08T19:55:58.541Z,6.87
2019-03-08T19:58:47.704Z,6.81
2019-03-08T20:01:43.115Z,6.75
2019-03-08T20:04:18.864Z,6.69
2019-03-08T20:07:08.124Z,6.66
2019-03-08T20:09:56.657Z,6.63
2019-03-08T20:12:47.418Z,6.53
2019-03-08T20:15:37.686Z,6.42
2019-03-08T20:18:22.475Z,6.34
2019-03-08T20:21:04.139Z,6.27
2019-03-08T20:23:51.712Z,6.27
2019-03-08T20:26:40.631Z,6.31
2019-03-08T20:29:41.212Z,6.35
2019-03-08T20:32:31.352Z,6.19
2019-03-08T20:35:08.379Z,6.34
2019-03-08T20:38:01.825Z,6.29
2019-03-08T20:40:55.354Z,6.28
2019-03-08T20:43:35.549Z,6.32
2019-03-08T20:46:10.213Z,6.41
2019-03-08T20:48:41.529Z,6.56
2019-03-08T20:51:13.160Z,6.63
2019-03-08T20:53:44.989Z,6.76
2019-03-08T20:56:16.436Z,6.77
2019-03-08T20:58:48.058Z,6.80
2019-03-08T21:01:19.381Z,6.79
2019-03-08T21:03:50.762Z,6.85
2019-03-08T21:06:22.306Z,6.91
2019-03-08T21:08:53.613Z,6.91
2019-03-08T21:11:25.024Z,6.89
2019-03-08T21:13:56.742Z,6.81
2019-03-08T21:16:28.105Z,6.73
2019-03-08T21:18:59.656Z,6.63
2019-03-08T21:21:31.209Z,6.53
2019-03-08T21:24:02.505Z,6.43
2019-03-08T21:26:34.048Z,6.38
2019-03-08T21:29:05.817Z,6.31
2019-03-08T21:31:37.309Z,6.27
2019-03-08T21:34:09.714Z,6.25
2019-03-08T21:36:41.234Z,6.23
2019-03-08T21:39:14.102Z,6.22
2019-03-08T21:41:45.438Z,6.20
2019-03-08T21:44:16.918Z,6.15
2019-03-08T21:46:51.535Z,6.10
2019-03-08T21:49:22.915Z,6.02
2019-03-08T21:51:54.270Z,5.91
2019-03-08T21:54:25.536Z,5.79
2019-03-08T21:56:59.924Z,5.68
2019-03-08T21:59:31.249Z,5.58
2019-03-08T22:02:02.645Z,5.51
2019-03-08T22:04:38.177Z,5.48
2019-03-08T22:07:11.186Z,5.42
2019-03-08T22:09:47.021Z,5.39
2019-03-08T22:12:21.472Z,5.35
2019-03-08T22:14:52.943Z,5.29
2019-03-08T22:17:24.623Z,5.26
2019-03-08T22:19:56.020Z,5.24
2019-03-08T22:22:27.345Z,5.21
2019-03-08T22:24:59.057Z,5.17
2019-03-08T22:27:36.537Z,5.14
2019-03-08T22:30:10.888Z,5.09
2019-03-08T22:32:42.294Z,5.03
2019-03-08T22:35:14.646Z,4.97
2019-03-08T22:37:45.996Z,4.90
2019-03-08T22:40:17.294Z,4.87
2019-03-08T22:42:48.580Z,4.85
2019-03-08T22:45:19.853Z,4.83
2019-03-08T22:47:52.948Z,4.80
2019-03-08T22:50:24.359Z,4.73
2019-03-08T22:52:55.773Z,4.69
2019-03-08T22:55:27.050Z,4.61
2019-03-08T22:57:58.396Z,4.56
2019-03-08T23:00:53.044Z,4.53
2019-03-08T23:03:24.630Z,4.49
2019-03-08T23:05:55.994Z,4.45
2019-03-08T23:08:27.583Z,4.43
2019-03-08T23:11:00.854Z,4.43
2019-03-08T23:13:32.305Z,4.41
2019-03-08T23:16:03.645Z,4.36
2019-03-08T23:18:35.043Z,4.28
2019-03-08T23:21:06.595Z,4.23
2019-03-08T23:23:37.906Z,4.20
2019-03-08T23:26:09.193Z,4.17
2019-03-08T23:28:53.177Z,4.14
2019-03-08T23:31:37.296Z,4.14
2019-03-08T23:34:08.860Z,4.13
2019-03-08T23:36:41.068Z,4.10
2019-03-08T23:39:13.200Z,4.08
2019-03-08T23:41:44.567Z,3.30
2019-03-08T23:44:15.845Z,4.07
2019-03-08T23:46:47.535Z,4.05
2019-03-08T23:49:19.177Z,4.05
2019-03-08T23:51:52.102Z,4.03
2019-03-08T23:54:23.572Z,3.95
2019-03-08T23:56:54.830Z,3.92
2019-03-08T23:59:26.184Z,3.93
